sensor_id;sensor_type;location;lat;lon;timestamp;temperature;humidity
18930;DHT22;43305;52.186;5.598;2022-12-18T00:02:19;-3.70;99.90
18930;DHT22;43305;52.186;5.598;2022-12-18T00:04:47;-3.70;99.90
18930;DHT22;43305;52.186;5.598;2022-12-18T00:07:14;-3.70;99.90
18930;DHT22;43305;52.186;5.598;2022-12-18T00:09:40;-3.70;99.90
18930;DHT22;43305;52.186;5.598;2022-12-18T00:12:07;-3.80;99.90
18930;DHT22;43305;52.186;5.598;2022-12-18T00:14:34;-3.80;99.90
18930;DHT22;43305;52.186;5.598;2022-12-18T00:17:02;-3.80;99.90
18930;DHT22;43305;52.186;5.598;2022-12-18T00:19:30;-3.80;99.90
18930;DHT22;43305;52.186;5.598;2022-12-18T00:21:57;-3.90;99.90
18930;DHT22;43305;52.186;5.598;2022-12-18T00:24:24;-3.90;99.90
18930;DHT22;43305;52.186;5.598;2022-12-18T00:26:51;-3.90;99.90
18930;DHT22;43305;52.186;5.598;2022-12-18T00:29:18;-4.00;99.90
18930;DHT22;43305;52.186;5.598;2022-12-18T00:31:45;-4.00;99.90
18930;DHT22;43305;52.186;5.598;2022-12-18T00:34:13;-4.00;99.90
18930;DHT22;43305;52.186;5.598;2022-12-18T00:36:41;-4.00;99.90
18930;DHT22;43305;52.186;5.598;2022-12-18T00:39:10;-4.00;99.90
18930;DHT22;43305;52.186;5.598;2022-12-18T00:41:38;-4.10;99.90
18930;DHT22;43305;52.186;5.598;2022-12-18T00:44:19;-4.10;99.90
18930;DHT22;43305;52.186;5.598;2022-12-18T00:46:47;-4.00;99.90
18930;DHT22;43305;52.186;5.598;2022-12-18T00:49:15;-4.10;99.90
18930;DHT22;43305;52.186;5.598;2022-12-18T00:51:43;-4.10;99.90
18930;DHT22;43305;52.186;5.598;2022-12-18T00:54:10;-4.00;99.90
18930;DHT22;43305;52.186;5.598;2022-12-18T00:56:37;-4.00;99.90
18930;DHT22;43305;52.186;5.598;2022-12-18T00:59:05;-4.00;99.90
18930;DHT22;43305;52.186;5.598;2022-12-18T01:01:32;-4.00;99.90
18930;DHT22;43305;52.186;5.598;2022-12-18T01:04:00;-4.00;99.90
18930;DHT22;43305;52.186;5.598;2022-12-18T01:06:27;-4.10;99.90
18930;DHT22;43305;52.186;5.598;2022-12-18T01:08:55;-4.20;99.90
18930;DHT22;43305;52.186;5.598;2022-12-18T01:11:22;-4.20;99.90
18930;DHT22;43305;52.186;5.598;2022-12-18T01:13:49;-4.20;99.90
18930;DHT22;43305;52.186;5.598;2022-12-18T01:16:17;-4.20;99.90
18930;DHT22;43305;52.186;5.598;2022-12-18T01:18:44;-4.30;99.90
18930;DHT22;43305;52.186;5.598;2022-12-18T01:21:13;-4.30;99.90
18930;DHT22;43305;52.186;5.598;2022-12-18T01:23:40;-4.20;99.90
18930;DHT22;43305;52.186;5.598;2022-12-18T01:26:10;-4.20;99.90
18930;DHT22;43305;52.186;5.598;2022-12-18T01:28:37;-4.30;99.90
18930;DHT22;43305;52.186;5.598;2022-12-18T01:31:13;-4.30;99.90
18930;DHT22;43305;52.186;5.598;2022-12-18T01:33:40;-4.30;99.90
18930;DHT22;43305;52.186;5.598;2022-12-18T01:36:08;-4.30;99.90
18930;DHT22;43305;52.186;5.598;2022-12-18T01:38:40;-4.30;99.90
18930;DHT22;43305;52.186;5.598;2022-12-18T01:41:09;-4.30;99.90
18930;DHT22;43305;52.186;5.598;2022-12-18T01:43:43;-4.30;99.90
18930;DHT22;43305;52.186;5.598;2022-12-18T01:46:10;-4.40;99.90
18930;DHT22;43305;52.186;5.598;2022-12-18T01:48:39;-4.40;99.90
18930;DHT22;43305;52.186;5.598;2022-12-18T01:51:08;-4.40;99.90
18930;DHT22;43305;52.186;5.598;2022-12-18T01:53:36;-4.40;99.90
18930;DHT22;43305;52.186;5.598;2022-12-18T01:56:04;-4.50;99.90
18930;DHT22;43305;52.186;5.598;2022-12-18T01:58:37;-4.50;99.90
18930;DHT22;43305;52.186;5.598;2022-12-18T02:01:07;-4.50;99.90
18930;DHT22;43305;52.186;5.598;2022-12-18T02:03:34;-4.60;99.90
18930;DHT22;43305;52.186;5.598;2022-12-18T02:06:06;-4.60;99.90
18930;DHT22;43305;52.186;5.598;2022-12-18T02:08:40;-4.60;99.90
18930;DHT22;43305;52.186;5.598;2022-12-18T02:11:14;-4.60;99.90
18930;DHT22;43305;52.186;5.598;2022-12-18T02:13:49;-4.70;99.90
18930;DHT22;43305;52.186;5.598;2022-12-18T02:16:21;-4.70;99.90
18930;DHT22;43305;52.186;5.598;2022-12-18T02:18:55;-4.70;99.90
18930;DHT22;43305;52.186;5.598;2022-12-18T02:21:30;-4.70;99.90
18930;DHT22;43305;52.186;5.598;2022-12-18T02:24:11;-4.80;99.90
18930;DHT22;43305;52.186;5.598;2022-12-18T02:26:45;-4.80;99.90
18930;DHT22;43305;52.186;5.598;2022-12-18T02:31:52;-4.80;99.90
18930;DHT22;43305;52.186;5.598;2022-12-18T02:34:26;-4.80;99.90
18930;DHT22;43305;52.186;5.598;2022-12-18T02:36:54;-4.90;99.90
18930;DHT22;43305;52.186;5.598;2022-12-18T02:39:25;-4.90;99.90
18930;DHT22;43305;52.186;5.598;2022-12-18T02:41:55;-4.90;99.90
18930;DHT22;43305;52.186;5.598;2022-12-18T02:44:23;-4.90;99.90
18930;DHT22;43305;52.186;5.598;2022-12-18T02:46:52;-4.80;99.90
18930;DHT22;43305;52.186;5.598;2022-12-18T02:49:26;-4.90;99.90
18930;DHT22;43305;52.186;5.598;2022-12-18T02:52:00;-4.90;99.90
18930;DHT22;43305;52.186;5.598;2022-12-18T02:54:39;-5.00;99.90
18930;DHT22;43305;52.186;5.598;2022-12-18T02:57:15;-5.10;99.90
18930;DHT22;43305;52.186;5.598;2022-12-18T02:59:54;-5.10;99.90
18930;DHT22;43305;52.186;5.598;2022-12-18T03:02:26;-5.10;99.90
18930;DHT22;43305;52.186;5.598;2022-12-18T03:04:59;-5.20;99.90
18930;DHT22;43305;52.186;5.598;2022-12-18T03:07:36;-5.10;99.90
18930;DHT22;43305;52.186;5.598;2022-12-18T03:10:07;-5.20;99.90
18930;DHT22;43305;52.186;5.598;2022-12-18T03:12:42;-5.20;99.90
18930;DHT22;43305;52.186;5.598;2022-12-18T03:15:16;-5.20;99.90
18930;DHT22;43305;52.186;5.598;2022-12-18T03:17:46;-5.30;99.90
18930;DHT22;43305;52.186;5.598;2022-12-18T03:20:18;-5.30;99.90
18930;DHT22;43305;52.186;5.598;2022-12-18T03:22:51;-5.20;99.90
18930;DHT22;43305;52.186;5.598;2022-12-18T03:25:19;-5.30;99.90
18930;DHT22;43305;52.186;5.598;2022-12-18T03:27:51;-5.30;99.90
18930;DHT22;43305;52.186;5.598;2022-12-18T03:30:20;-5.30;99.90
18930;DHT22;43305;52.186;5.598;2022-12-18T03:32:50;-5.30;99.90
18930;DHT22;43305;52.186;5.598;2022-12-18T03:35:23;-5.30;99.90
18930;DHT22;43305;52.186;5.598;2022-12-18T03:40:43;-5.30;99.90
18930;DHT22;43305;52.186;5.598;2022-12-18T03:43:20;-5.30;99.90
18930;DHT22;43305;52.186;5.598;2022-12-18T03:45:57;-5.30;99.90
18930;DHT22;43305;52.186;5.598;2022-12-18T03:48:29;-5.30;99.90
18930;DHT22;43305;52.186;5.598;2022-12-18T03:50:57;-5.30;99.90
18930;DHT22;43305;52.186;5.598;2022-12-18T03:53:29;-5.40;99.90
18930;DHT22;43305;52.186;5.598;2022-12-18T03:56:17;-5.30;99.90
18930;DHT22;43305;52.186;5.598;2022-12-18T03:58:46;-5.40;99.90
18930;DHT22;43305;52.186;5.598;2022-12-18T04:01:16;-5.40;99.90
18930;DHT22;43305;52.186;5.598;2022-12-18T04:03:46;-5.40;99.90
18930;DHT22;43305;52.186;5.598;2022-12-18T04:06:15;-5.40;99.90
18930;DHT22;43305;52.186;5.598;2022-12-18T04:08:43;-5.40;99.90
18930;DHT22;43305;52.186;5.598;2022-12-18T04:11:13;-5.50;99.90
18930;DHT22;43305;52.186;5.598;2022-12-18T04:13:42;-5.40;99.90
18930;DHT22;43305;52.186;5.598;2022-12-18T04:16:10;-5.40;99.90
18930;DHT22;43305;52.186;5.598;2022-12-18T04:18:45;-5.40;99.90
18930;DHT22;43305;52.186;5.598;2022-12-18T04:21:18;-5.40;99.90
18930;DHT22;43305;52.186;5.598;2022-12-18T04:23:50;-5.50;99.90
18930;DHT22;43305;52.186;5.598;2022-12-18T04:26:19;-5.40;99.90
18930;DHT22;43305;52.186;5.598;2022-12-18T04:28:52;-5.50;99.90
18930;DHT22;43305;52.186;5.598;2022-12-18T04:31:34;-5.50;99.90
18930;DHT22;43305;52.186;5.598;2022-12-18T04:34:12;-5.50;99.90
18930;DHT22;43305;52.186;5.598;2022-12-18T04:36:47;-5.50;99.90
18930;DHT22;43305;52.186;5.598;2022-12-18T04:39:22;-5.50;99.90
18930;DHT22;43305;52.186;5.598;2022-12-18T04:41:50;-5.50;99.90
18930;DHT22;43305;52.186;5.598;2022-12-18T04:44:19;-5.50;99.90
18930;DHT22;43305;52.186;5.598;2022-12-18T04:46:54;-5.50;99.90
18930;DHT22;43305;52.186;5.598;2022-12-18T04:49:34;-5.50;99.90
18930;DHT22;43305;52.186;5.598;2022-12-18T04:52:01;-5.50;99.90
18930;DHT22;43305;52.186;5.598;2022-12-18T04:54:34;-5.50;99.90
18930;DHT22;43305;52.186;5.598;2022-12-18T04:57:02;-5.50;99.90
18930;DHT22;43305;52.186;5.598;2022-12-18T04:59:34;-5.50;99.90
18930;DHT22;43305;52.186;5.598;2022-12-18T05:02:03;-5.50;99.90
18930;DHT22;43305;52.186;5.598;2022-12-18T05:04:35;-5.50;99.90
18930;DHT22;43305;52.186;5.598;2022-12-18T05:07:10;-5.50;99.90
18930;DHT22;43305;52.186;5.598;2022-12-18T05:09:43;-5.50;99.90
18930;DHT22;43305;52.186;5.598;2022-12-18T05:12:14;-5.50;99.90
18930;DHT22;43305;52.186;5.598;2022-12-18T05:14:44;-5.40;99.90
18930;DHT22;43305;52.186;5.598;2022-12-18T05:17:16;-5.50;99.90
18930;DHT22;43305;52.186;5.598;2022-12-18T05:19:51;-5.50;99.90
18930;DHT22;43305;52.186;5.598;2022-12-18T05:22:22;-5.50;99.90
18930;DHT22;43305;52.186;5.598;2022-12-18T05:24:59;-5.40;99.90
18930;DHT22;43305;52.186;5.598;2022-12-18T05:27:28;-5.50;99.90
18930;DHT22;43305;52.186;5.598;2022-12-18T05:29:58;-5.50;99.90
18930;DHT22;43305;52.186;5.598;2022-12-18T05:32:46;-5.50;99.90
18930;DHT22;43305;52.186;5.598;2022-12-18T05:35:13;-5.50;99.90
18930;DHT22;43305;52.186;5.598;2022-12-18T05:37:45;-5.50;99.90
18930;DHT22;43305;52.186;5.598;2022-12-18T05:40:16;-5.50;99.90
18930;DHT22;43305;52.186;5.598;2022-12-18T05:42:45;-5.50;99.90
18930;DHT22;43305;52.186;5.598;2022-12-18T05:45:16;-5.50;99.90
18930;DHT22;43305;52.186;5.598;2022-12-18T05:48:02;-5.50;99.90
18930;DHT22;43305;52.186;5.598;2022-12-18T05:50:43;-5.50;99.90
18930;DHT22;43305;52.186;5.598;2022-12-18T05:53:14;-5.50;99.90
18930;DHT22;43305;52.186;5.598;2022-12-18T05:55:46;-5.50;99.90
18930;DHT22;43305;52.186;5.598;2022-12-18T05:58:19;-5.50;99.90
18930;DHT22;43305;52.186;5.598;2022-12-18T06:00:49;-5.40;99.90
18930;DHT22;43305;52.186;5.598;2022-12-18T06:03:47;-5.40;99.90
18930;DHT22;43305;52.186;5.598;2022-12-18T06:06:16;-5.40;99.90
18930;DHT22;43305;52.186;5.598;2022-12-18T06:08:56;-5.40;99.90
18930;DHT22;43305;52.186;5.598;2022-12-18T06:11:27;-5.40;99.90
18930;DHT22;43305;52.186;5.598;2022-12-18T06:13:58;-5.40;99.90
18930;DHT22;43305;52.186;5.598;2022-12-18T06:16:28;-5.40;99.90
18930;DHT22;43305;52.186;5.598;2022-12-18T06:19:00;-5.40;99.90
18930;DHT22;43305;52.186;5.598;2022-12-18T06:21:38;-5.40;99.90
18930;DHT22;43305;52.186;5.598;2022-12-18T06:24:18;-5.40;99.90
18930;DHT22;43305;52.186;5.598;2022-12-18T06:26:56;-5.50;99.90
18930;DHT22;43305;52.186;5.598;2022-12-18T06:29:26;-5.50;99.90
18930;DHT22;43305;52.186;5.598;2022-12-18T06:31:55;-5.50;99.90
18930;DHT22;43305;52.186;5.598;2022-12-18T06:34:30;-5.50;99.90
18930;DHT22;43305;52.186;5.598;2022-12-18T06:37:02;-5.40;99.90
18930;DHT22;43305;52.186;5.598;2022-12-18T06:39:33;-5.50;99.90
18930;DHT22;43305;52.186;5.598;2022-12-18T06:42:06;-5.40;99.90
18930;DHT22;43305;52.186;5.598;2022-12-18T06:44:45;-5.40;99.90
18930;DHT22;43305;52.186;5.598;2022-12-18T06:47:28;-5.40;99.90
18930;DHT22;43305;52.186;5.598;2022-12-18T06:49:58;-5.40;99.90
18930;DHT22;43305;52.186;5.598;2022-12-18T06:52:35;-5.40;99.90
18930;DHT22;43305;52.186;5.598;2022-12-18T06:55:03;-5.40;99.90
18930;DHT22;43305;52.186;5.598;2022-12-18T06:57:39;-5.30;99.90
18930;DHT22;43305;52.186;5.598;2022-12-18T07:00:14;-5.40;99.90
18930;DHT22;43305;52.186;5.598;2022-12-18T07:02:51;-5.30;99.90
18930;DHT22;43305;52.186;5.598;2022-12-18T07:05:25;-5.30;99.90
18930;DHT22;43305;52.186;5.598;2022-12-18T07:08:05;-5.20;99.90
18930;DHT22;43305;52.186;5.598;2022-12-18T07:10:46;-5.20;99.90
18930;DHT22;43305;52.186;5.598;2022-12-18T07:13:29;-5.20;99.90
18930;DHT22;43305;52.186;5.598;2022-12-18T07:16:12;-5.20;99.90
18930;DHT22;43305;52.186;5.598;2022-12-18T07:18:43;-5.20;99.90
18930;DHT22;43305;52.186;5.598;2022-12-18T07:21:37;-5.20;99.90
18930;DHT22;43305;52.186;5.598;2022-12-18T07:24:12;-5.20;99.90
18930;DHT22;43305;52.186;5.598;2022-12-18T07:26:45;-5.10;99.90
18930;DHT22;43305;52.186;5.598;2022-12-18T07:29:16;-5.10;99.90
18930;DHT22;43305;52.186;5.598;2022-12-18T07:31:49;-5.10;99.90
18930;DHT22;43305;52.186;5.598;2022-12-18T07:34:19;-5.00;99.90
18930;DHT22;43305;52.186;5.598;2022-12-18T07:36:50;-5.00;99.90
18930;DHT22;43305;52.186;5.598;2022-12-18T07:39:18;-5.00;99.90
18930;DHT22;43305;52.186;5.598;2022-12-18T07:41:47;-5.00;99.90
18930;DHT22;43305;52.186;5.598;2022-12-18T07:44:30;-5.00;99.90
18930;DHT22;43305;52.186;5.598;2022-12-18T07:47:00;-4.90;99.90
18930;DHT22;43305;52.186;5.598;2022-12-18T07:49:30;-4.90;99.90
18930;DHT22;43305;52.186;5.598;2022-12-18T07:52:03;-4.90;99.90
18930;DHT22;43305;52.186;5.598;2022-12-18T07:54:33;-4.80;99.90
18930;DHT22;43305;52.186;5.598;2022-12-18T07:57:10;-4.80;99.90
18930;DHT22;43305;52.186;5.598;2022-12-18T07:59:43;-4.70;99.90
18930;DHT22;43305;52.186;5.598;2022-12-18T08:02:12;-4.70;99.90
18930;DHT22;43305;52.186;5.598;2022-12-18T08:04:49;-4.60;99.90
18930;DHT22;43305;52.186;5.598;2022-12-18T08:07:18;-4.60;99.90
18930;DHT22;43305;52.186;5.598;2022-12-18T08:09:45;-4.40;99.90
18930;DHT22;43305;52.186;5.598;2022-12-18T08:12:17;-4.40;99.90
18930;DHT22;43305;52.186;5.598;2022-12-18T08:14:47;-4.30;99.90
18930;DHT22;43305;52.186;5.598;2022-12-18T08:17:27;-4.20;99.90
18930;DHT22;43305;52.186;5.598;2022-12-18T08:19:54;-4.20;99.90
18930;DHT22;43305;52.186;5.598;2022-12-18T08:22:24;-4.10;99.90
18930;DHT22;43305;52.186;5.598;2022-12-18T08:25:04;-4.00;99.90
18930;DHT22;43305;52.186;5.598;2022-12-18T08:27:40;-4.00;99.90
18930;DHT22;43305;52.186;5.598;2022-12-18T08:30:14;-3.90;99.90
18930;DHT22;43305;52.186;5.598;2022-12-18T08:32:55;-3.80;99.90
18930;DHT22;43305;52.186;5.598;2022-12-18T08:35:25;-3.80;99.90
18930;DHT22;43305;52.186;5.598;2022-12-18T08:37:54;-3.70;99.90
18930;DHT22;43305;52.186;5.598;2022-12-18T08:40:23;-3.60;99.90
18930;DHT22;43305;52.186;5.598;2022-12-18T08:43:02;-3.60;99.90
18930;DHT22;43305;52.186;5.598;2022-12-18T08:45:44;-3.60;99.90
18930;DHT22;43305;52.186;5.598;2022-12-18T08:48:19;-3.50;99.90
18930;DHT22;43305;52.186;5.598;2022-12-18T08:51:02;-3.50;99.90
18930;DHT22;43305;52.186;5.598;2022-12-18T08:53:56;-3.40;99.90
18930;DHT22;43305;52.186;5.598;2022-12-18T08:56:26;-3.30;99.90
18930;DHT22;43305;52.186;5.598;2022-12-18T08:59:01;-3.30;99.90
18930;DHT22;43305;52.186;5.598;2022-12-18T09:01:30;-3.20;99.90
18930;DHT22;43305;52.186;5.598;2022-12-18T09:03:57;-3.20;99.90
18930;DHT22;43305;52.186;5.598;2022-12-18T09:06:25;-3.10;99.90
18930;DHT22;43305;52.186;5.598;2022-12-18T09:09:14;-3.10;99.90
18930;DHT22;43305;52.186;5.598;2022-12-18T09:11:52;-3.00;99.90
18930;DHT22;43305;52.186;5.598;2022-12-18T09:14:28;-2.90;99.90
18930;DHT22;43305;52.186;5.598;2022-12-18T09:17:00;-2.70;99.90
18930;DHT22;43305;52.186;5.598;2022-12-18T09:19:45;-2.70;99.90
18930;DHT22;43305;52.186;5.598;2022-12-18T09:22:30;-2.60;99.90
18930;DHT22;43305;52.186;5.598;2022-12-18T09:25:16;-2.50;99.90
18930;DHT22;43305;52.186;5.598;2022-12-18T09:27:49;-2.40;99.90
18930;DHT22;43305;52.186;5.598;2022-12-18T09:30:20;-2.40;99.90
18930;DHT22;43305;52.186;5.598;2022-12-18T09:32:58;-2.40;99.90
18930;DHT22;43305;52.186;5.598;2022-12-18T09:35:36;-2.30;99.90
18930;DHT22;43305;52.186;5.598;2022-12-18T09:38:19;-2.30;99.90
18930;DHT22;43305;52.186;5.598;2022-12-18T09:40:53;-2.30;99.90
18930;DHT22;43305;52.186;5.598;2022-12-18T09:43:35;-2.30;99.90
18930;DHT22;43305;52.186;5.598;2022-12-18T09:46:16;-2.20;99.90
18930;DHT22;43305;52.186;5.598;2022-12-18T09:48:49;-2.20;99.90
18930;DHT22;43305;52.186;5.598;2022-12-18T09:51:25;-2.10;99.90
18930;DHT22;43305;52.186;5.598;2022-12-18T09:54:02;-2.10;99.90
18930;DHT22;43305;52.186;5.598;2022-12-18T09:56:41;-2.10;99.90
18930;DHT22;43305;52.186;5.598;2022-12-18T09:59:23;-2.10;99.90
18930;DHT22;43305;52.186;5.598;2022-12-18T10:01:51;-2.00;99.90
18930;DHT22;43305;52.186;5.598;2022-12-18T10:04:41;-1.90;99.90
18930;DHT22;43305;52.186;5.598;2022-12-18T10:07:19;-2.00;99.90
18930;DHT22;43305;52.186;5.598;2022-12-18T10:10:04;-1.90;99.90
18930;DHT22;43305;52.186;5.598;2022-12-18T10:12:46;-1.90;99.90
18930;DHT22;43305;52.186;5.598;2022-12-18T10:15:23;-1.80;99.90
18930;DHT22;43305;52.186;5.598;2022-12-18T10:18:00;-1.80;99.90
18930;DHT22;43305;52.186;5.598;2022-12-18T10:20:35;-1.80;99.90
18930;DHT22;43305;52.186;5.598;2022-12-18T10:23:13;-1.70;99.90
18930;DHT22;43305;52.186;5.598;2022-12-18T10:26:00;-1.70;99.90
18930;DHT22;43305;52.186;5.598;2022-12-18T10:28:35;-1.70;99.90
18930;DHT22;43305;52.186;5.598;2022-12-18T10:31:27;-1.60;99.90
18930;DHT22;43305;52.186;5.598;2022-12-18T10:33:54;-1.60;99.90
18930;DHT22;43305;52.186;5.598;2022-12-18T10:36:24;-1.60;99.90
18930;DHT22;43305;52.186;5.598;2022-12-18T10:38:51;-1.50;99.90
18930;DHT22;43305;52.186;5.598;2022-12-18T10:41:30;-1.50;99.90
18930;DHT22;43305;52.186;5.598;2022-12-18T10:44:17;-1.40;99.90
18930;DHT22;43305;52.186;5.598;2022-12-18T10:46:47;-1.40;99.90
18930;DHT22;43305;52.186;5.598;2022-12-18T10:49:31;-1.40;99.90
18930;DHT22;43305;52.186;5.598;2022-12-18T10:52:14;-1.30;99.90
18930;DHT22;43305;52.186;5.598;2022-12-18T10:54:48;-1.30;99.90
18930;DHT22;43305;52.186;5.598;2022-12-18T10:57:18;-1.30;99.90
18930;DHT22;43305;52.186;5.598;2022-12-18T11:00:25;-1.30;99.90
18930;DHT22;43305;52.186;5.598;2022-12-18T11:02:55;-1.20;99.90
18930;DHT22;43305;52.186;5.598;2022-12-18T11:05:29;-1.20;99.90
18930;DHT22;43305;52.186;5.598;2022-12-18T11:08:01;-1.20;99.90
18930;DHT22;43305;52.186;5.598;2022-12-18T11:10:32;-1.10;99.90
18930;DHT22;43305;52.186;5.598;2022-12-18T11:13:16;-1.10;99.90
18930;DHT22;43305;52.186;5.598;2022-12-18T11:16:03;-1.10;99.90
18930;DHT22;43305;52.186;5.598;2022-12-18T11:18:42;-1.00;99.90
18930;DHT22;43305;52.186;5.598;2022-12-18T11:21:13;-1.00;99.90
18930;DHT22;43305;52.186;5.598;2022-12-18T11:23:49;-1.00;99.90
18930;DHT22;43305;52.186;5.598;2022-12-18T11:26:16;-1.00;99.90
18930;DHT22;43305;52.186;5.598;2022-12-18T11:28:45;-0.90;99.90
18930;DHT22;43305;52.186;5.598;2022-12-18T11:44:45;-0.90;99.90
18930;DHT22;43305;52.186;5.598;2022-12-18T11:47:22;-0.70;99.90
18930;DHT22;43305;52.186;5.598;2022-12-18T11:49:53;-0.60;99.90
18930;DHT22;43305;52.186;5.598;2022-12-18T11:52:32;-0.60;99.90
18930;DHT22;43305;52.186;5.598;2022-12-18T11:55:11;-0.60;99.90
18930;DHT22;43305;52.186;5.598;2022-12-18T11:57:50;-0.50;99.90
18930;DHT22;43305;52.186;5.598;2022-12-18T12:00:23;-0.50;99.90
18930;DHT22;43305;52.186;5.598;2022-12-18T12:03:06;-0.50;99.90
18930;DHT22;43305;52.186;5.598;2022-12-18T12:05:43;-0.40;99.90
18930;DHT22;43305;52.186;5.598;2022-12-18T12:08:22;-0.40;99.90
18930;DHT22;43305;52.186;5.598;2022-12-18T12:11:00;-0.40;99.90
18930;DHT22;43305;52.186;5.598;2022-12-18T12:13:49;-0.40;99.90
18930;DHT22;43305;52.186;5.598;2022-12-18T12:16:41;-0.40;99.90
18930;DHT22;43305;52.186;5.598;2022-12-18T12:19:27;-0.30;99.90
18930;DHT22;43305;52.186;5.598;2022-12-18T12:22:06;-0.30;99.90
18930;DHT22;43305;52.186;5.598;2022-12-18T12:24:50;-0.20;99.90
18930;DHT22;43305;52.186;5.598;2022-12-18T12:27:36;-0.30;99.90
18930;DHT22;43305;52.186;5.598;2022-12-18T12:30:15;-0.20;99.90
18930;DHT22;43305;52.186;5.598;2022-12-18T12:32:58;-0.20;99.90
18930;DHT22;43305;52.186;5.598;2022-12-18T12:35:36;-0.20;99.90
18930;DHT22;43305;52.186;5.598;2022-12-18T12:38:12;-0.20;99.90
18930;DHT22;43305;52.186;5.598;2022-12-18T12:40:44;-0.10;99.90
18930;DHT22;43305;52.186;5.598;2022-12-18T12:43:25;-0.10;99.90
18930;DHT22;43305;52.186;5.598;2022-12-18T12:45:56;-0.10;99.90
18930;DHT22;43305;52.186;5.598;2022-12-18T12:48:40;0.00;99.90
18930;DHT22;43305;52.186;5.598;2022-12-18T12:51:14;0.00;99.90
18930;DHT22;43305;52.186;5.598;2022-12-18T12:53:42;0.00;99.90
18930;DHT22;43305;52.186;5.598;2022-12-18T12:56:13;0.00;99.90
18930;DHT22;43305;52.186;5.598;2022-12-18T12:58:48;0.00;99.90
18930;DHT22;43305;52.186;5.598;2022-12-18T13:01:28;0.00;99.90
18930;DHT22;43305;52.186;5.598;2022-12-18T13:04:14;0.10;99.90
18930;DHT22;43305;52.186;5.598;2022-12-18T13:06:50;0.10;99.90
18930;DHT22;43305;52.186;5.598;2022-12-18T13:09:21;0.10;99.90
18930;DHT22;43305;52.186;5.598;2022-12-18T13:11:52;0.10;99.90
18930;DHT22;43305;52.186;5.598;2022-12-18T13:14:40;0.10;99.90
18930;DHT22;43305;52.186;5.598;2022-12-18T13:17:25;0.20;99.90
18930;DHT22;43305;52.186;5.598;2022-12-18T13:20:06;0.20;99.90
18930;DHT22;43305;52.186;5.598;2022-12-18T13:22:42;0.20;99.90
18930;DHT22;43305;52.186;5.598;2022-12-18T13:25:37;0.20;99.90
18930;DHT22;43305;52.186;5.598;2022-12-18T13:28:10;0.20;99.90
18930;DHT22;43305;52.186;5.598;2022-12-18T13:30:44;0.20;99.90
18930;DHT22;43305;52.186;5.598;2022-12-18T13:33:37;0.20;99.90
18930;DHT22;43305;52.186;5.598;2022-12-18T13:36:15;0.20;99.90
18930;DHT22;43305;52.186;5.598;2022-12-18T13:39:10;0.20;99.90
18930;DHT22;43305;52.186;5.598;2022-12-18T13:41:37;0.20;99.90
18930;DHT22;43305;52.186;5.598;2022-12-18T13:44:20;0.20;99.90
18930;DHT22;43305;52.186;5.598;2022-12-18T13:46:51;0.20;99.90
18930;DHT22;43305;52.186;5.598;2022-12-18T13:49:34;0.30;99.90
18930;DHT22;43305;52.186;5.598;2022-12-18T13:52:18;0.30;99.90
18930;DHT22;43305;52.186;5.598;2022-12-18T13:54:49;0.20;99.90
18930;DHT22;43305;52.186;5.598;2022-12-18T13:57:28;0.20;99.90
18930;DHT22;43305;52.186;5.598;2022-12-18T14:00:30;0.20;99.90
18930;DHT22;43305;52.186;5.598;2022-12-18T14:02:59;0.20;99.90
18930;DHT22;43305;52.186;5.598;2022-12-18T14:05:29;0.20;99.90
18930;DHT22;43305;52.186;5.598;2022-12-18T14:08:04;0.20;99.90
18930;DHT22;43305;52.186;5.598;2022-12-18T14:10:32;0.20;99.90
18930;DHT22;43305;52.186;5.598;2022-12-18T14:13:04;0.20;99.90
18930;DHT22;43305;52.186;5.598;2022-12-18T14:15:40;0.20;99.90
18930;DHT22;43305;52.186;5.598;2022-12-18T14:18:18;0.20;99.90
18930;DHT22;43305;52.186;5.598;2022-12-18T14:20:49;0.20;99.90
18930;DHT22;43305;52.186;5.598;2022-12-18T14:23:35;0.20;99.90
18930;DHT22;43305;52.186;5.598;2022-12-18T14:26:18;0.20;99.90
18930;DHT22;43305;52.186;5.598;2022-12-18T14:28:51;0.20;99.90
18930;DHT22;43305;52.186;5.598;2022-12-18T14:31:27;0.20;99.90
18930;DHT22;43305;52.186;5.598;2022-12-18T14:33:57;0.20;99.90
18930;DHT22;43305;52.186;5.598;2022-12-18T14:36:31;0.20;99.90
18930;DHT22;43305;52.186;5.598;2022-12-18T14:39:00;0.20;99.90
18930;DHT22;43305;52.186;5.598;2022-12-18T14:41:26;0.30;99.90
18930;DHT22;43305;52.186;5.598;2022-12-18T14:44:04;0.20;99.90
18930;DHT22;43305;52.186;5.598;2022-12-18T14:46:35;0.20;99.90
18930;DHT22;43305;52.186;5.598;2022-12-18T14:49:04;0.20;99.90
18930;DHT22;43305;52.186;5.598;2022-12-18T14:51:33;0.20;99.90
18930;DHT22;43305;52.186;5.598;2022-12-18T14:54:05;0.20;99.90
18930;DHT22;43305;52.186;5.598;2022-12-18T14:56:44;0.20;99.90
18930;DHT22;43305;52.186;5.598;2022-12-18T14:59:14;0.30;99.90
18930;DHT22;43305;52.186;5.598;2022-12-18T15:01:47;0.30;99.90
18930;DHT22;43305;52.186;5.598;2022-12-18T15:04:26;0.20;99.90
18930;DHT22;43305;52.186;5.598;2022-12-18T15:07:09;0.20;99.90
18930;DHT22;43305;52.186;5.598;2022-12-18T15:09:40;0.20;99.90
18930;DHT22;43305;52.186;5.598;2022-12-18T15:12:28;0.20;99.90
18930;DHT22;43305;52.186;5.598;2022-12-18T15:15:02;0.20;99.90
18930;DHT22;43305;52.186;5.598;2022-12-18T15:17:34;0.20;99.90
18930;DHT22;43305;52.186;5.598;2022-12-18T15:20:09;0.20;99.90
18930;DHT22;43305;52.186;5.598;2022-12-18T15:22:42;0.20;99.90
18930;DHT22;43305;52.186;5.598;2022-12-18T15:25:29;0.20;99.90
18930;DHT22;43305;52.186;5.598;2022-12-18T15:28:12;0.20;99.90
18930;DHT22;43305;52.186;5.598;2022-12-18T15:31:01;0.20;99.90
18930;DHT22;43305;52.186;5.598;2022-12-18T15:33:32;0.20;99.90
18930;DHT22;43305;52.186;5.598;2022-12-18T15:36:02;0.20;99.90
18930;DHT22;43305;52.186;5.598;2022-12-18T15:38:30;0.20;99.90
18930;DHT22;43305;52.186;5.598;2022-12-18T15:41:03;0.20;99.90
18930;DHT22;43305;52.186;5.598;2022-12-18T15:43:37;0.20;99.90
18930;DHT22;43305;52.186;5.598;2022-12-18T15:46:09;0.20;99.90
18930;DHT22;43305;52.186;5.598;2022-12-18T15:48:42;0.20;99.90
18930;DHT22;43305;52.186;5.598;2022-12-18T15:51:21;0.20;99.90
18930;DHT22;43305;52.186;5.598;2022-12-18T15:53:55;0.20;99.90
18930;DHT22;43305;52.186;5.598;2022-12-18T15:56:27;0.20;99.90
18930;DHT22;43305;52.186;5.598;2022-12-18T15:59:13;0.20;99.90
18930;DHT22;43305;52.186;5.598;2022-12-18T16:01:45;0.20;99.90
18930;DHT22;43305;52.186;5.598;2022-12-18T16:04:22;0.20;99.90
18930;DHT22;43305;52.186;5.598;2022-12-18T16:06:51;0.20;99.90
18930;DHT22;43305;52.186;5.598;2022-12-18T16:09:20;0.20;99.90
18930;DHT22;43305;52.186;5.598;2022-12-18T16:11:51;0.20;99.90
18930;DHT22;43305;52.186;5.598;2022-12-18T16:14:29;0.20;99.90
18930;DHT22;43305;52.186;5.598;2022-12-18T16:17:08;0.10;99.90
18930;DHT22;43305;52.186;5.598;2022-12-18T16:19:43;0.20;99.90
18930;DHT22;43305;52.186;5.598;2022-12-18T16:22:24;0.20;99.90
18930;DHT22;43305;52.186;5.598;2022-12-18T16:25:02;0.20;99.90
18930;DHT22;43305;52.186;5.598;2022-12-18T16:27:33;0.10;99.90
18930;DHT22;43305;52.186;5.598;2022-12-18T16:30:11;0.10;99.90
18930;DHT22;43305;52.186;5.598;2022-12-18T16:32:44;0.10;99.90
18930;DHT22;43305;52.186;5.598;2022-12-18T16:35:15;0.10;99.90
18930;DHT22;43305;52.186;5.598;2022-12-18T16:37:49;0.20;99.90
18930;DHT22;43305;52.186;5.598;2022-12-18T16:40:26;0.10;99.90